FW1958 Treasure Island FL US current weather conditions

sailwx.info

Wind from 339 at 6 knots gusting 11

Air temperature 11.7° C
Dewpoint 6.6° C

Last reported at 2020-Jan-23 03:46 UTC.
Time now 2020-Jan-23 04:54 UTC

Location: N 27°46' W 082°46'.
View on Google Maps.

See reports from other nearby stations

  
Tides and Currents Weather Stations Pressure Air Temp Water Temp Dewpoint Dewpoint Depression Visibility Wind Speed Wind Dir Waves Ship Positions
date/time (UTC)wind fromknots sea level pressurealtimeterstation pressurevisibilityair tempwater tempwave heightnotes
2020-Jan-23 03:46 339 6 gusting 11 11.7
2020-Jan-23 03:30 013 4 gusting 10 11.7
2020-Jan-23 03:15 051 6 gusting 13 11.7
2020-Jan-23 03:03 013 4 gusting 11 12.2
2020-Jan-23 02:46 036 6 gusting 13 12.2
2020-Jan-23 02:31 360 6 gusting 11 12.2
2020-Jan-23 02:16 015 6 gusting 13 12.8
2020-Jan-23 02:01 005 7 gusting 12 12.8
2020-Jan-23 01:46 022 5 gusting 10 12.8
2020-Jan-23 01:30 009 6 gusting 10 12.8
2020-Jan-23 01:16 016 5 gusting 10 12.8
2020-Jan-23 01:01 014 6 gusting 10 12.8
2020-Jan-23 00:45 011 2 gusting 9 12.8
2020-Jan-23 00:31 016 3 gusting 8 12.2
2020-Jan-23 00:15 355 6 gusting 11 12.2
2020-Jan-23 00:00 355 5 gusting 9 12.2
2020-Jan-22 23:45 360 6 gusting 9 12.2
2020-Jan-22 23:30 348 6 gusting 11 12.2
2020-Jan-22 23:15 360 6 gusting 10 12.2
2020-Jan-22 23:00 347 3 gusting 8 11.7
2020-Jan-22 22:45 342 6 gusting 10 11.7
2020-Jan-22 22:30 318 6 gusting 12 11.7
2020-Jan-22 22:15 348 7 gusting 12 11.7
2020-Jan-22 22:00 355 6 gusting 11 11.7
2020-Jan-22 21:45 005 6 gusting 12 11.7
2020-Jan-22 21:30 355 6 gusting 11 11.7
2020-Jan-22 21:15 333 6 gusting 12 11.7
2020-Jan-22 21:00 324 5 gusting 11 11.7
2020-Jan-22 20:45 339 5 gusting 9 11.7
2020-Jan-22 20:30 265 5 gusting 10 11.7
2020-Jan-22 20:15 355 4 gusting 11 11.1
2020-Jan-22 20:02 296 4 gusting 8 11.1
2020-Jan-22 19:47 279 6 gusting 11 10.6
2020-Jan-22 19:32 360 4 gusting 9 11.1
2020-Jan-22 19:16 281 3 gusting 8 11.1
2020-Jan-22 19:02 300 4 gusting 8 10.6
2020-Jan-22 18:47 322 5 gusting 11 10.6
2020-Jan-22 18:32 325 3 gusting 9 10.6
2020-Jan-22 18:18 323 5 gusting 10 10.6
2020-Jan-22 18:01 284 4 gusting 8 10.6
2020-Jan-22 17:46 291 2 gusting 8 10.6
2020-Jan-22 17:32 291 2 gusting 6 10.6
2020-Jan-22 17:16 322 3 gusting 7 10.0
2020-Jan-22 17:01 286 4 gusting 7 10.0
2020-Jan-22 16:46 331 2 gusting 7 9.4
2020-Jan-22 16:31 325 3 gusting 8 9.4
2020-Jan-22 16:17 337 4 gusting 10 8.3
2020-Jan-22 16:01 331 4 gusting 9 8.3
2020-Jan-22 15:46 310 3 gusting 9 8.3
2020-Jan-22 15:31 355 5 gusting 9 7.8
2020-Jan-22 15:17 347 5 gusting 8 7.2
2020-Jan-22 15:00 342 3 gusting 10 6.7
2020-Jan-22 14:45 334 6 gusting 12 6.1
2020-Jan-22 14:30 360 8 gusting 13 5.6
2020-Jan-22 14:16 346 7 gusting 13 5.6
2020-Jan-22 14:01 360 5 gusting 12 5.0
2020-Jan-22 13:45 042 6 gusting 11 4.4
2020-Jan-22 13:30 338 4 gusting 10 3.9
2020-Jan-22 13:15 329 4 gusting 11 3.9
2020-Jan-22 13:00 340 6 gusting 9 2.8
2020-Jan-22 12:45 005 5 gusting 9 2.8
2020-Jan-22 12:30 355 6 gusting 11 2.8
2020-Jan-22 12:15 034 6 gusting 10 2.8
2020-Jan-22 12:01 010 5 gusting 11 2.8
2020-Jan-22 11:45 355 6 gusting 12 2.8
2020-Jan-22 11:30 026 7 gusting 13 2.8
2020-Jan-22 11:15 360 8 gusting 13 2.8
2020-Jan-22 11:00 355 7 gusting 14 2.8
2020-Jan-22 10:45 321 6 gusting 11 2.8
2020-Jan-22 10:30 355 9 gusting 16 2.8
2020-Jan-22 10:17 360 7 gusting 13 3.3
2020-Jan-22 10:01 013 10 gusting 15 3.3
2020-Jan-22 09:47 336 10 gusting 16 3.3
2020-Jan-22 09:31 355 10 gusting 16 3.3
2020-Jan-22 09:17 016 10 gusting 19 3.9
2020-Jan-22 09:02 005 8 gusting 16 3.9
2020-Jan-22 08:46 016 8 gusting 15 3.9
2020-Jan-22 08:32 005 8 gusting 15 3.9
2020-Jan-22 08:17 355 7 gusting 17 4.4
2020-Jan-22 08:01 350 10 gusting 19 4.4
2020-Jan-22 07:46 355 13 gusting 18 4.4
2020-Jan-22 07:31 360 11 gusting 19 4.4
2020-Jan-22 07:16 014 11 gusting 19 4.4
2020-Jan-22 07:00 023 10 gusting 18 4.4
2020-Jan-22 06:46 015 10 gusting 18 4.4
2020-Jan-22 06:31 005 10 gusting 16 5.0
2020-Jan-22 06:17 016 9 gusting 19 5.0
2020-Jan-22 06:01 355 11 gusting 17 5.0
2020-Jan-22 05:46 347 9 gusting 16 5.0
2020-Jan-22 05:30 348 10 gusting 17 5.0
2020-Jan-22 05:15 013 11 gusting 17 5.6
2020-Jan-22 05:00 013 9 gusting 16 5.6
2020-Jan-22 04:45 041 11 gusting 16 5.6
2020-Jan-22 04:30 019 11 gusting 17 5.6
2020-Jan-22 04:15 015 12 gusting 19 6.1
2020-Jan-22 03:45 349 9 gusting 17 6.1
2020-Jan-22 03:31 026 10 gusting 15 6.7
2020-Jan-22 03:15 030 10 gusting 17 6.7
2020-Jan-22 02:45 024 9 gusting 15 7.2
2020-Jan-22 02:30 005 6 gusting 14 7.2
2020-Jan-22 02:15 360 9 gusting 16 7.8
2020-Jan-22 02:00 044 9 gusting 15 7.8
2020-Jan-22 01:45 017 8 gusting 16 7.8
2020-Jan-22 01:30 028 8 gusting 14 8.3
2020-Jan-22 01:02 024 6 gusting 12 8.3
2020-Jan-22 00:48 057 8 gusting 13 8.9
2020-Jan-22 00:31 009 7 gusting 13 8.9
2020-Jan-22 00:17 349 9 gusting 14 8.9
2020-Jan-22 00:03 015 7 gusting 13 8.9
2020-Jan-21 23:46 016 9 gusting 14 8.9
2020-Jan-21 23:33 360 9 gusting 13 8.9
2020-Jan-21 23:17 355 9 gusting 14 9.4
2020-Jan-21 23:01 326 9 gusting 14 9.4
2020-Jan-21 22:47 328 8 gusting 13 9.4
2020-Jan-21 22:32 349 7 gusting 15 9.4
2020-Jan-21 22:16 340 7 gusting 14 9.4
2020-Jan-21 22:03 020 9 gusting 18 9.4
2020-Jan-21 21:46 336 8 gusting 16 9.4
2020-Jan-21 21:32 360 9 gusting 18 9.4
2020-Jan-21 21:16 332 10 gusting 16 9.4
2020-Jan-21 21:02 336 7 gusting 13 10.0
2020-Jan-21 20:47 327 7 gusting 16 10.0
2020-Jan-21 20:31 355 10 gusting 15 10.0
2020-Jan-21 20:17 298 9 gusting 15 10.0
2020-Jan-21 20:02 360 10 gusting 18 10.0
2020-Jan-21 19:47 348 11 gusting 19 10.0
2020-Jan-21 19:32 360 9 gusting 14 10.0
2020-Jan-21 19:17 009 10 gusting 19 9.4
2020-Jan-21 19:01 319 9 gusting 16 10.0
2020-Jan-21 18:46 011 10 gusting 19 10.0
2020-Jan-21 18:31 005 10 gusting 19 10.0
2020-Jan-21 18:16 355 11 gusting 19 10.0
2020-Jan-21 18:01 005 12 gusting 20 10.0
2020-Jan-21 17:46 348 9 gusting 19 10.0
2020-Jan-21 17:31 360 10 gusting 17 10.0
2020-Jan-21 17:16 327 11 gusting 18 10.0
2020-Jan-21 17:02 344 11 gusting 16 9.4
2020-Jan-21 16:46 360 11 gusting 17 10.0
2020-Jan-21 16:31 328 8 gusting 17 10.0
2020-Jan-21 16:16 336 11 gusting 19 10.0
2020-Jan-21 16:01 332 7 gusting 14 10.0
2020-Jan-21 15:46 355 8 gusting 13 10.0
2020-Jan-21 15:31 342 8 gusting 14 10.0
2020-Jan-21 15:17 324 6 gusting 13 9.4
2020-Jan-21 15:01 346 9 gusting 15 8.9
2020-Jan-21 14:46 005 6 gusting 13 8.9
2020-Jan-21 14:30 360 7 gusting 13 8.9
2020-Jan-21 14:16 013 7 gusting 13 8.3
2020-Jan-21 14:01 360 7 gusting 13 8.3
2020-Jan-21 13:45 009 7 gusting 13 7.8
2020-Jan-21 13:30 355 7 gusting 13 7.2
2020-Jan-21 13:15 010 7 gusting 13 6.7
2020-Jan-21 13:00 360 6 gusting 13 6.7
2020-Jan-21 12:45 009 9 gusting 13 6.1
2020-Jan-21 12:30 011 4 gusting 8 6.1
2020-Jan-21 12:15 348 6 gusting 9 6.1
2020-Jan-21 12:00 342 6 gusting 11 6.7
2020-Jan-21 11:45 355 6 gusting 12 6.7
2020-Jan-21 11:30 347 6 gusting 10 6.7
2020-Jan-21 11:17 337 6 gusting 12 6.7
2020-Jan-21 11:01 016 6 gusting 11 6.7
2020-Jan-21 10:47 011 5 gusting 8 6.7
2020-Jan-21 10:32 021 5 gusting 9 6.7
2020-Jan-21 10:17 036 6 gusting 10 6.7
2020-Jan-21 10:01 011 5 gusting 9 6.7
2020-Jan-21 09:46 012 4 gusting 10 6.7
2020-Jan-21 09:32 012 6 gusting 11 7.2
2020-Jan-21 09:17 339 6 gusting 10 7.2
2020-Jan-21 09:03 344 6 gusting 11 7.2
2020-Jan-21 08:47 005 6 gusting 11 7.8
2020-Jan-21 08:31 360 6 gusting 11 7.8
2020-Jan-21 08:17 019 5 gusting 11 8.3
2020-Jan-21 08:01 012 6 gusting 11 8.3
2020-Jan-21 07:46 355 6 gusting 10 8.3
2020-Jan-21 07:31 360 6 gusting 13 8.3
2020-Jan-21 07:16 360 8 gusting 13 8.9
2020-Jan-21 07:00 005 6 gusting 14 8.9
2020-Jan-21 06:46 343 6 gusting 11 8.9
2020-Jan-21 06:31 360 5 gusting 10 8.9
2020-Jan-21 06:15 034 6 gusting 9 9.4
2020-Jan-21 06:00 017 6 gusting 13 10.0
2020-Jan-21 05:45 045 4 gusting 11 10.0
2020-Jan-21 05:30 012 5 gusting 11 10.0
2020-Jan-21 05:15 015 6 gusting 9 10.6
2020-Jan-21 05:00 360 5 gusting 10 10.6
2020-Jan-21 04:45 061 6 gusting 12 10.6
2020-Jan-21 04:30 027 5 gusting 12 10.6
2020-Jan-21 04:15 355 6 gusting 10 11.1
2020-Jan-21 04:00 033 6 gusting 10 11.1